Terminal Aerodrome Forecast
Issued by NWS Shreveport, LA

Home | Current Version | Previous Version | Text Only | Print | Product List | Glossary On
Versions: 1 2 3 4 5 6 7 8 9 10 11 12 13
113
FTUS44 KSHV 221932 AAA
TAFTXK
TAF AMD
KTXK 221932Z 2220/2318 15004KT P6SM VCSH BKN035
      TEMPO 2220/2222 -TSRA BKN045CB
     FM222200 15006KT P6SM BKN050
     FM230000 13004KT P6SM FEW050
     FM231500 11005KT P6SM BKN045=

USA.gov is the U.S. government's official web portal to all federal, state and local government web resources and services.